Time;durP1;ratioP1;P1;durP2;ratioP2;P2;SDS_P1;SDS_P2;PMS_P1;PMS_P2;Temp;Humidity;BMP_temperature;BMP_pressure;BME280_temperature;BME280_humidity;BME280_pressure;Samples;Min_cycle;Max_cycle;Signal;HPM_P1;HPM_P2
2023/12/03 00:02:13;;;;;;;;;;;17.90;61.50;;;;;;5025329;28;43087;-79
2023/12/03 00:04:41;;;;;;;;;;;17.80;60.80;;;;;;5025166;28;42989;-79
2023/12/03 00:07:07;;;;;;;;;;;17.80;61.30;;;;;;5024828;28;43128;-79
2023/12/03 00:09:33;;;;;;;;;;;17.90;61.40;;;;;;5026876;28;43421;-78
2023/12/03 00:11:58;;;;;;;;;;;17.90;61.30;;;;;;5025129;28;42961;-78
2023/12/03 00:14:24;;;;;;;;;;;17.90;61.40;;;;;;5024363;28;43701;-78
2023/12/03 00:16:49;;;;;;;;;;;17.80;61.20;;;;;;5024779;28;43043;-78
2023/12/03 00:19:15;;;;;;;;;;;17.80;61.30;;;;;;5024413;28;43048;-79
2023/12/03 00:21:40;;;;;;;;;;;17.90;61.30;;;;;;5025236;28;42841;-79
2023/12/03 00:24:06;;;;;;;;;;;17.80;61.20;;;;;;5025321;28;43154;-78
2023/12/03 00:26:31;;;;;;;;;;;17.80;60.50;;;;;;5035581;28;42976;-77
2023/12/03 00:28:57;;;;;;;;;;;18.00;60.70;;;;;;5026037;28;43619;-79
2023/12/03 00:31:22;;;;;;;;;;;17.80;61.20;;;;;;5025053;28;42845;-78
2023/12/03 00:33:48;;;;;;;;;;;17.90;61.50;;;;;;5024498;28;43140;-77
2023/12/03 00:36:13;;;;;;;;;;;17.80;61.20;;;;;;5025091;28;42943;-79
2023/12/03 00:38:39;;;;;;;;;;;18.00;60.60;;;;;;5024386;28;42927;-77
2023/12/03 00:41:04;;;;;;;;;;;17.90;61.20;;;;;;5023480;28;43182;-78
2023/12/03 00:43:30;;;;;;;;;;;17.90;61.20;;;;;;5024220;28;43567;-78
2023/12/03 00:45:57;;;;;;;;;;;17.90;61.20;;;;;;5023942;28;42952;-79
2023/12/03 00:48:23;;;;;;;;;;;18.00;60.60;;;;;;5023022;28;43852;-79
2023/12/03 00:50:48;;;;;;;;;;;17.90;61.30;;;;;;5023522;28;43094;-78
2023/12/03 00:53:14;;;;;;;;;;;18.00;60.80;;;;;;5005714;28;44293;-78
2023/12/03 00:55:40;;;;;;;;;;;17.90;60.80;;;;;;5024451;28;42976;-78
2023/12/03 00:58:05;;;;;;;;;;;17.90;60.70;;;;;;5024675;28;43476;-79
2023/12/03 01:00:31;;;;;;;;;;;17.80;61.40;;;;;;5024084;28;43351;-79
2023/12/03 01:02:56;;;;;;;;;;;17.80;60.70;;;;;;5024291;28;43852;-78
2023/12/03 01:05:22;;;;;;;;;;;17.90;60.80;;;;;;5023963;28;43007;-79
2023/12/03 01:07:47;;;;;;;;;;;17.90;61.60;;;;;;5024512;28;42881;-79
2023/12/03 01:10:13;;;;;;;;;;;17.90;61.00;;;;;;5024120;28;43114;-78
2023/12/03 01:12:38;;;;;;;;;;;17.90;61.00;;;;;;5023579;28;43008;-77
2023/12/03 01:15:04;;;;;;;;;;;17.90;61.00;;;;;;5024085;28;42972;-79
2023/12/03 01:17:29;;;;;;;;;;;17.90;61.00;;;;;;5022001;28;43595;-77
2023/12/03 01:19:55;;;;;;;;;;;17.80;61.10;;;;;;5024896;28;43191;-77
2023/12/03 01:22:20;;;;;;;;;;;17.80;61.00;;;;;;5023718;28;43166;-78
2023/12/03 01:24:46;;;;;;;;;;;17.10;61.20;;;;;;5015602;28;42933;-78
2023/12/03 01:27:11;;;;;;;;;;;17.80;60.80;;;;;;5018245;28;43048;-78
2023/12/03 01:29:38;;;;;;;;;;;17.90;61.50;;;;;;5024411;28;43159;-79
2023/12/03 01:32:03;;;;;;;;;;;17.90;60.90;;;;;;5023884;28;42917;-78
2023/12/03 01:34:29;;;;;;;;;;;17.80;60.90;;;;;;5023865;28;43042;-78
2023/12/03 01:36:54;;;;;;;;;;;17.90;60.90;;;;;;5023953;28;43090;-78
2023/12/03 01:39:21;;;;;;;;;;;17.90;61.70;;;;;;5026102;28;42984;-78
2023/12/03 01:41:46;;;;;;;;;;;17.90;61.00;;;;;;5026906;28;44429;-78
2023/12/03 01:44:12;;;;;;;;;;;17.90;61.00;;;;;;5027278;28;43208;-79
2023/12/03 01:46:37;;;;;;;;;;;17.80;61.00;;;;;;5027584;28;43027;-78
2023/12/03 01:49:03;;;;;;;;;;;17.80;61.00;;;;;;5027726;28;43109;-78
2023/12/03 01:51:28;;;;;;;;;;;17.90;61.80;;;;;;5027185;28;42950;-77
2023/12/03 01:53:54;;;;;;;;;;;17.90;61.10;;;;;;5041515;28;43138;-79
2023/12/03 01:56:20;;;;;;;;;;;17.90;61.60;;;;;;5026833;28;42935;-78
2023/12/03 01:58:46;;;;;;;;;;;17.90;60.90;;;;;;5025081;28;43012;-78
2023/12/03 02:01:11;;;;;;;;;;;17.90;61.60;;;;;;5008332;28;42990;-79
2023/12/03 02:03:37;;;;;;;;;;;17.80;61.00;;;;;;5026172;28;42925;-78
2023/12/03 02:06:06;;;;;;;;;;;17.90;61.80;;;;;;5026914;28;43150;-78
2023/12/03 02:08:32;;;;;;;;;;;17.90;61.40;;;;;;5026629;28;42818;-79
2023/12/03 02:10:58;;;;;;;;;;;17.80;61.20;;;;;;5026310;28;43461;-77
2023/12/03 02:13:24;;;;;;;;;;;17.90;61.70;;;;;;5027299;28;43059;-79
2023/12/03 02:15:50;;;;;;;;;;;18.00;61.30;;;;;;5026790;28;43541;-78
2023/12/03 02:18:15;;;;;;;;;;;17.90;62.00;;;;;;5026380;28;42923;-78
2023/12/03 02:20:41;;;;;;;;;;;17.90;61.90;;;;;;5026812;28;42964;-79
2023/12/03 02:23:07;;;;;;;;;;;17.90;61.90;;;;;;5027145;28;43025;-78
2023/12/03 02:25:33;;;;;;;;;;;17.90;61.20;;;;;;5026926;28;42896;-79
2023/12/03 02:27:58;;;;;;;;;;;17.90;61.30;;;;;;5026333;28;42888;-78
2023/12/03 02:30:24;;;;;;;;;;;17.80;61.20;;;;;;5026567;28;42979;-78
2023/12/03 02:32:49;;;;;;;;;;;17.90;62.10;;;;;;5026997;28;42929;-78
2023/12/03 02:35:15;;;;;;;;;;;17.90;61.90;;;;;;5026436;28;43506;-78
2023/12/03 02:37:41;;;;;;;;;;;17.80;61.30;;;;;;5027025;28;42939;-79
2023/12/03 02:40:06;;;;;;;;;;;17.90;62.00;;;;;;5026729;28;42866;-76
2023/12/03 02:42:32;;;;;;;;;;;17.90;61.80;;;;;;5026606;28;42970;-77
2023/12/03 02:44:57;;;;;;;;;;;17.90;62.10;;;;;;5026912;28;42870;-79
2023/12/03 02:47:23;;;;;;;;;;;18.00;61.40;;;;;;5029719;28;42936;-79
2023/12/03 02:49:49;;;;;;;;;;;17.90;61.30;;;;;;5029264;28;42849;-78
2023/12/03 02:52:14;;;;;;;;;;;17.80;61.90;;;;;;5026941;28;42861;-78
2023/12/03 02:54:40;;;;;;;;;;;17.80;61.40;;;;;;5026339;28;43271;-78
2023/12/03 02:57:05;;;;;;;;;;;17.90;62.20;;;;;;5027085;28;42936;-78
2023/12/03 02:59:31;;;;;;;;;;;17.90;62.10;;;;;;5013613;28;42921;-77
2023/12/03 03:01:57;;;;;;;;;;;17.90;62.20;;;;;;5026428;28;43000;-79
2023/12/03 03:04:22;;;;;;;;;;;18.40;61.80;;;;;;5025306;28;43752;-79
2023/12/03 03:06:48;;;;;;;;;;;17.80;62.10;;;;;;5025966;28;42956;-79
2023/12/03 03:09:13;;;;;;;;;;;17.90;62.20;;;;;;5025919;28;43160;-79
2023/12/03 03:11:39;;;;;;;;;;;17.90;63.20;;;;;;5026410;28;42972;-79
2023/12/03 03:14:04;;;;;;;;;;;18.00;61.80;;;;;;5025794;28;43567;-77
2023/12/03 03:16:30;;;;;;;;;;;17.80;61.80;;;;;;5025864;28;42884;-79
2023/12/03 03:18:55;;;;;;;;;;;17.90;63.00;;;;;;5025793;28;43374;-78
2023/12/03 03:21:21;;;;;;;;;;;17.90;62.70;;;;;;5026244;28;42834;-78
2023/12/03 03:23:47;;;;;;;;;;;17.90;62.60;;;;;;5007154;28;44010;-79
2023/12/03 03:26:12;;;;;;;;;;;17.90;63.30;;;;;;5025939;28;43014;-79
2023/12/03 03:28:38;;;;;;;;;;;17.90;62.90;;;;;;5025202;28;43442;-79
2023/12/03 03:31:04;;;;;;;;;;;17.90;62.00;;;;;;5025802;28;42800;-78
2023/12/03 03:33:29;;;;;;;;;;;17.90;62.30;;;;;;5007193;28;45094;-79
2023/12/03 03:35:55;;;;;;;;;;;18.00;63.00;;;;;;5025764;28;42807;-78
2023/12/03 03:38:20;;;;;;;;;;;17.90;63.00;;;;;;5025699;28;43603;-78
2023/12/03 03:40:46;;;;;;;;;;;17.90;62.70;;;;;;5025910;28;42894;-79
2023/12/03 03:43:11;;;;;;;;;;;17.90;62.10;;;;;;5025186;28;43418;-78
2023/12/03 03:45:37;;;;;;;;;;;17.80;62.20;;;;;;5025887;28;43328;-79
2023/12/03 03:48:03;;;;;;;;;;;17.80;62.10;;;;;;5025169;28;43512;-79
2023/12/03 03:50:28;;;;;;;;;;;18.00;62.00;;;;;;5018758;28;42984;-79
2023/12/03 03:52:53;;;;;;;;;;;17.90;62.80;;;;;;5045362;28;43014;-77
2023/12/03 03:55:19;;;;;;;;;;;18.00;62.10;;;;;;5045013;28;43052;-78
2023/12/03 03:57:44;;;;;;;;;;;17.80;61.90;;;;;;5045450;28;43594;-79
2023/12/03 04:00:11;;;;;;;;;;;17.90;62.70;;;;;;5045308;28;42868;-78
2023/12/03 04:02:36;;;;;;;;;;;17.90;62.00;;;;;;5044359;28;43069;-79
2023/12/03 04:05:02;;;;;;;;;;;17.90;62.60;;;;;;5045523;28;42980;-78
2023/12/03 04:07:28;;;;;;;;;;;17.90;62.70;;;;;;5044378;28;43732;-78
2023/12/03 04:09:54;;;;;;;;;;;18.00;62.10;;;;;;5045222;28;42923;-79
2023/12/03 04:12:19;;;;;;;;;;;17.90;62.10;;;;;;5044714;28;44219;-78
2023/12/03 04:14:45;;;;;;;;;;;17.70;62.70;;;;;;5045315;28;43056;-79
2023/12/03 04:17:10;;;;;;;;;;;17.90;62.00;;;;;;5044704;28;42908;-79
2023/12/03 04:19:36;;;;;;;;;;;17.90;62.10;;;;;;5045437;28;43041;-78
2023/12/03 04:22:01;;;;;;;;;;;17.90;62.70;;;;;;5045407;28;43489;-77
2023/12/03 04:24:27;;;;;;;;;;;17.90;62.70;;;;;;5044901;28;42969;-79
2023/12/03 04:26:52;;;;;;;;;;;17.90;63.00;;;;;;5044432;28;42822;-78
2023/12/03 04:29:18;;;;;;;;;;;18.00;62.90;;;;;;5044614;28;42777;-78
2023/12/03 04:31:43;;;;;;;;;;;17.90;62.70;;;;;;5044271;28;42809;-78
2023/12/03 04:34:09;;;;;;;;;;;17.90;62.80;;;;;;5025701;28;43138;-78
2023/12/03 04:36:34;;;;;;;;;;;17.90;62.80;;;;;;5043527;28;43649;-78
2023/12/03 04:39:00;;;;;;;;;;;17.90;62.80;;;;;;5044343;28;42909;-77
2023/12/03 04:41:33;;;;;;;;;;;18.00;62.90;;;;;;5044147;28;43470;-79
2023/12/03 04:43:58;;;;;;;;;;;17.90;62.70;;;;;;5044312;28;43046;-79
2023/12/03 04:46:24;;;;;;;;;;;17.90;62.10;;;;;;5044492;28;43153;-78
2023/12/03 04:48:49;;;;;;;;;;;17.90;62.10;;;;;;5044910;28;43023;-78
2023/12/03 04:51:15;;;;;;;;;;;17.90;62.10;;;;;;5023680;28;42896;-79
2023/12/03 04:53:40;;;;;;;;;;;18.00;62.40;;;;;;5022522;28;43035;-79
2023/12/03 04:56:06;;;;;;;;;;;18.10;62.30;;;;;;5023731;28;43404;-78
2023/12/03 04:58:32;;;;;;;;;;;17.90;62.20;;;;;;5024021;28;43818;-78
2023/12/03 05:00:57;;;;;;;;;;;17.90;62.20;;;;;;5023894;28;44040;-78
2023/12/03 05:03:22;;;;;;;;;;;17.90;62.90;;;;;;5024304;28;43298;-78
2023/12/03 05:05:48;;;;;;;;;;;18.00;62.00;;;;;;5022309;28;42873;-79
2023/12/03 05:08:14;;;;;;;;;;;17.80;62.60;;;;;;5031868;28;43009;-78
2023/12/03 05:10:39;;;;;;;;;;;17.90;62.90;;;;;;5026709;28;43546;-79
2023/12/03 05:13:05;;;;;;;;;;;18.00;62.10;;;;;;5023488;28;42937;-79
2023/12/03 05:15:30;;;;;;;;;;;17.90;63.00;;;;;;5023359;28;42964;-79
2023/12/03 05:17:56;;;;;;;;;;;17.90;62.60;;;;;;5024783;28;43046;-78
2023/12/03 05:20:22;;;;;;;;;;;17.90;63.00;;;;;;5024406;28;44566;-79
2023/12/03 05:22:47;;;;;;;;;;;17.90;62.60;;;;;;5005959;28;43255;-78
2023/12/03 05:25:13;;;;;;;;;;;17.80;61.80;;;;;;5023904;28;42988;-79
2023/12/03 05:27:38;;;;;;;;;;;17.90;62.80;;;;;;5022260;28;43708;-78
2023/12/03 05:30:04;;;;;;;;;;;18.00;62.10;;;;;;5023922;28;43752;-78
2023/12/03 05:32:30;;;;;;;;;;;18.00;62.40;;;;;;5023605;28;43068;-79
2023/12/03 05:34:55;;;;;;;;;;;17.90;62.00;;;;;;5023594;28;42980;-78
2023/12/03 05:37:21;;;;;;;;;;;17.90;62.60;;;;;;5023623;28;42878;-78
2023/12/03 05:39:47;;;;;;;;;;;17.90;62.50;;;;;;5024277;28;43058;-77
2023/12/03 05:42:15;;;;;;;;;;;17.90;62.00;;;;;;5022193;28;42914;-79
2023/12/03 05:44:41;;;;;;;;;;;18.00;62.50;;;;;;5023472;28;42934;-78
2023/12/03 05:47:06;;;;;;;;;;;17.90;62.10;;;;;;5023915;28;42960;-79
2023/12/03 05:49:32;;;;;;;;;;;18.00;62.40;;;;;;5009751;28;42984;-77
2023/12/03 05:51:57;;;;;;;;;;;17.90;62.30;;;;;;5043444;28;43070;-79
2023/12/03 05:54:23;;;;;;;;;;;17.90;62.80;;;;;;5037503;28;42908;-79
2023/12/03 05:56:49;;;;;;;;;;;17.90;62.70;;;;;;5043537;28;42994;-78
2023/12/03 05:59:15;;;;;;;;;;;17.90;62.20;;;;;;5041083;28;43601;-79
2023/12/03 06:01:40;;;;;;;;;;;18.00;62.40;;;;;;5041700;28;43108;-78
2023/12/03 06:04:06;;;;;;;;;;;17.80;62.20;;;;;;5043427;28;43705;-78
2023/12/03 06:06:32;;;;;;;;;;;18.00;63.00;;;;;;5024476;28;42988;-79
2023/12/03 06:08:58;;;;;;;;;;;17.90;62.60;;;;;;5031814;28;43013;-78
2023/12/03 06:11:24;;;;;;;;;;;17.90;62.40;;;;;;5010994;28;43148;-79
2023/12/03 06:13:49;;;;;;;;;;;17.90;62.30;;;;;;5038660;28;43795;-78
2023/12/03 06:16:15;;;;;;;;;;;18.00;62.00;;;;;;5053368;28;43504;-79
2023/12/03 06:18:42;;;;;;;;;;;17.90;61.70;;;;;;5024110;28;43728;-79
2023/12/03 06:21:08;;;;;;;;;;;18.00;61.80;;;;;;5024589;28;43080;-79
2023/12/03 06:23:33;;;;;;;;;;;18.00;61.80;;;;;;5041789;28;43617;-79
2023/12/03 06:25:59;;;;;;;;;;;17.80;61.70;;;;;;5044918;28;43270;-80
2023/12/03 06:28:24;;;;;;;;;;;18.00;61.80;;;;;;5046403;28;43072;-79
2023/12/03 06:30:50;;;;;;;;;;;18.00;61.70;;;;;;5044578;28;43066;-80
2023/12/03 06:33:18;;;;;;;;;;;17.80;61.60;;;;;;5027196;28;45781;-79
2023/12/03 06:35:44;;;;;;;;;;;18.00;61.60;;;;;;5026509;28;43105;-79
2023/12/03 06:38:10;;;;;;;;;;;17.90;61.20;;;;;;5044685;28;44712;-80
2023/12/03 06:40:36;;;;;;;;;;;17.90;60.90;;;;;;5034985;28;43070;-80
2023/12/03 06:43:01;;;;;;;;;;;17.90;60.10;;;;;;5044023;28;43608;-79
2023/12/03 06:45:27;;;;;;;;;;;17.90;59.60;;;;;;5032955;28;43046;-79
2023/12/03 06:47:52;;;;;;;;;;;18.00;59.60;;;;;;5037705;28;43242;-79
2023/12/03 06:50:18;;;;;;;;;;;17.90;59.50;;;;;;5032343;28;42888;-79
2023/12/03 06:52:44;;;;;;;;;;;17.90;58.90;;;;;;5038985;28;43063;-79
2023/12/03 06:55:09;;;;;;;;;;;17.90;60.00;;;;;;5044596;28;42982;-79
2023/12/03 06:57:35;;;;;;;;;;;17.90;60.20;;;;;;5045528;28;44007;-79
2023/12/03 07:00:00;;;;;;;;;;;17.90;60.60;;;;;;5046085;28;43180;-79
2023/12/03 07:02:26;;;;;;;;;;;17.90;60.70;;;;;;5045661;28;43999;-79
2023/12/03 07:04:51;;;;;;;;;;;17.80;60.70;;;;;;5044185;28;43108;-80
2023/12/03 07:07:17;;;;;;;;;;;17.50;60.60;;;;;;5025870;28;44492;-81
2023/12/03 07:09:43;;;;;;;;;;;17.90;60.90;;;;;;5045153;28;42951;-79
2023/12/03 07:12:08;;;;;;;;;;;17.90;61.00;;;;;;5039273;28;43035;-80
2023/12/03 07:14:34;;;;;;;;;;;18.00;61.00;;;;;;5034254;28;42906;-81
2023/12/03 07:16:59;;;;;;;;;;;18.00;58.90;;;;;;5042095;28;42888;-81
2023/12/03 07:19:25;;;;;;;;;;;17.90;58.10;;;;;;5037495;28;43159;-79
2023/12/03 07:21:50;;;;;;;;;;;17.80;57.40;;;;;;5032807;28;43683;-81
2023/12/03 07:24:16;;;;;;;;;;;17.90;57.70;;;;;;5030207;28;42930;-81
2023/12/03 07:26:44;;;;;;;;;;;17.80;57.10;;;;;;5045058;28;42944;-80
2023/12/03 07:29:10;;;;;;;;;;;17.80;56.90;;;;;;5054326;28;42931;-81
2023/12/03 07:31:35;;;;;;;;;;;17.80;56.40;;;;;;5050441;28;42887;-80
2023/12/03 07:34:01;;;;;;;;;;;17.80;56.40;;;;;;5046471;28;42891;-80
2023/12/03 07:36:26;;;;;;;;;;;17.80;56.50;;;;;;5039287;28;42884;-80
2023/12/03 07:38:52;;;;;;;;;;;17.70;57.60;;;;;;5039623;28;43049;-80
2023/12/03 07:41:17;;;;;;;;;;;17.90;57.90;;;;;;5044651;28;43414;-80
2023/12/03 07:43:43;;;;;;;;;;;17.80;57.70;;;;;;5045432;28;43143;-80
2023/12/03 07:46:10;;;;;;;;;;;17.80;57.80;;;;;;5026134;28;44465;-79
2023/12/03 07:48:35;;;;;;;;;;;17.80;59.00;;;;;;5045391;28;43031;-80
2023/12/03 07:51:01;;;;;;;;;;;17.80;59.30;;;;;;5045290;28;42940;-79
2023/12/03 07:53:26;;;;;;;;;;;17.80;58.90;;;;;;5044203;28;42974;-80
2023/12/03 07:55:52;;;;;;;;;;;17.80;59.70;;;;;;5044218;28;43355;-80
2023/12/03 07:58:17;;;;;;;;;;;17.90;59.90;;;;;;5045356;28;42974;-80
2023/12/03 08:00:43;;;;;;;;;;;17.90;59.40;;;;;;5045758;28;43240;-80
2023/12/03 08:03:08;;;;;;;;;;;17.80;60.20;;;;;;5045681;28;42900;-80
2023/12/03 08:05:34;;;;;;;;;;;17.80;60.10;;;;;;5044285;28;43606;-81
2023/12/03 08:07:59;;;;;;;;;;;17.80;59.80;;;;;;5042268;28;42967;-80
2023/12/03 08:10:25;;;;;;;;;;;17.80;59.90;;;;;;5044040;28;43777;-80
2023/12/03 08:12:50;;;;;;;;;;;17.90;60.00;;;;;;5023717;28;43451;-79
2023/12/03 08:15:16;;;;;;;;;;;17.90;61.00;;;;;;5033618;28;43018;-79
2023/12/03 08:17:41;;;;;;;;;;;17.80;61.00;;;;;;5045612;28;43112;-80
2023/12/03 08:20:07;;;;;;;;;;;17.80;60.90;;;;;;5044806;28;42970;-81
2023/12/03 08:22:33;;;;;;;;;;;18.00;60.00;;;;;;5045586;28;43233;-81
2023/12/03 08:24:58;;;;;;;;;;;17.80;59.80;;;;;;5045236;28;43476;-80
2023/12/03 08:27:24;;;;;;;;;;;17.70;59.90;;;;;;5046060;28;43822;-80
2023/12/03 08:29:49;;;;;;;;;;;17.80;60.70;;;;;;5044994;28;43547;-80
2023/12/03 08:32:15;;;;;;;;;;;17.90;60.20;;;;;;5045122;28;42992;-80
2023/12/03 08:34:40;;;;;;;;;;;17.70;59.90;;;;;;5044949;28;43084;-80
2023/12/03 08:37:06;;;;;;;;;;;17.70;59.90;;;;;;5045352;28;42991;-80
2023/12/03 08:39:31;;;;;;;;;;;17.80;60.90;;;;;;5045248;28;43921;-80
2023/12/03 08:41:57;;;;;;;;;;;17.80;60.20;;;;;;5045059;28;43096;-80
2023/12/03 08:44:25;;;;;;;;;;;17.90;60.20;;;;;;5024028;28;43970;-80
2023/12/03 08:46:51;;;;;;;;;;;17.80;60.20;;;;;;5018039;28;43150;-79
2023/12/03 08:49:16;;;;;;;;;;;17.80;60.50;;;;;;5040423;28;42997;-79
2023/12/03 08:51:42;;;;;;;;;;;17.90;61.50;;;;;;5027128;28;43091;-79
2023/12/03 08:54:07;;;;;;;;;;;17.90;61.30;;;;;;5042248;28;43067;-79
2023/12/03 08:56:33;;;;;;;;;;;17.80;61.40;;;;;;5044208;28;42932;-79
2023/12/03 08:58:59;;;;;;;;;;;17.90;61.00;;;;;;5047560;28;42968;-79
2023/12/03 09:01:24;;;;;;;;;;;17.90;61.20;;;;;;5043415;28;42916;-79
2023/12/03 09:03:50;;;;;;;;;;;17.90;61.80;;;;;;5043886;28;42989;-79
2023/12/03 09:06:16;;;;;;;;;;;18.00;61.10;;;;;;5043452;28;43114;-80
2023/12/03 09:08:42;;;;;;;;;;;17.90;61.10;;;;;;5047703;28;43479;-80
2023/12/03 09:11:08;;;;;;;;;;;17.70;61.00;;;;;;5044936;28;42853;-80
2023/12/03 09:13:33;;;;;;;;;;;17.90;62.00;;;;;;5044342;28;43540;-80
2023/12/03 09:15:59;;;;;;;;;;;18.80;61.80;;;;;;5044894;28;42908;-80
2023/12/03 09:18:24;;;;;;;;;;;17.90;61.10;;;;;;5027588;28;44494;-79
2023/12/03 09:20:50;;;;;;;;;;;17.70;61.00;;;;;;5044405;28;43052;-80
2023/12/03 09:23:16;;;;;;;;;;;18.00;62.10;;;;;;5044497;28;43773;-80
2023/12/03 09:25:41;;;;;;;;;;;18.00;61.50;;;;;;5044290;28;42944;-80
2023/12/03 09:28:07;;;;;;;;;;;17.90;61.30;;;;;;5044431;28;43485;-80
2023/12/03 09:30:32;;;;;;;;;;;17.80;61.30;;;;;;5056443;28;43272;-80
2023/12/03 09:32:58;;;;;;;;;;;18.00;61.30;;;;;;5043631;28;43471;-81
2023/12/03 09:35:25;;;;;;;;;;;17.90;62.10;;;;;;5044057;28;42802;-85
2023/12/03 09:37:51;;;;;;;;;;;17.90;62.10;;;;;;5043586;28;43041;-79
2023/12/03 09:40:16;;;;;;;;;;;18.00;62.00;;;;;;5054657;28;42992;-82
2023/12/03 09:42:42;;;;;;;;;;;17.90;61.80;;;;;;5044679;28;42995;-81
2023/12/03 09:45:09;;;;;;;;;;;17.90;61.80;;;;;;5042764;28;42888;-82
2023/12/03 09:47:36;;;;;;;;;;;17.90;61.30;;;;;;5041123;28;43754;-83
2023/12/03 09:50:02;;;;;;;;;;;17.90;61.30;;;;;;5045854;28;43006;-80
2023/12/03 09:52:29;;;;;;;;;;;17.90;61.30;;;;;;5028991;28;43634;-81
2023/12/03 09:54:56;;;;;;;;;;;17.90;61.30;;;;;;5020740;28;42765;-82
2023/12/03 09:57:24;;;;;;;;;;;17.90;62.00;;;;;;5014066;28;43593;-80
2023/12/03 09:59:51;;;;;;;;;;;17.90;62.00;;;;;;5021536;28;42988;-79
2023/12/03 10:02:20;;;;;;;;;;;18.00;62.20;;;;;;5027317;28;43031;-80
2023/12/03 10:04:48;;;;;;;;;;;18.00;62.10;;;;;;5028106;28;42980;-80
2023/12/03 10:07:14;;;;;;;;;;;;;;;;;;5028122;28;43062;-80
2023/12/03 10:09:40;;;;;;;;;;;18.00;61.70;;;;;;5028635;28;43026;-80
2023/12/03 10:12:11;;;;;;;;;;;17.90;61.90;;;;;;5027541;28;44292;-79
2023/12/03 10:14:37;;;;;;;;;;;18.00;62.10;;;;;;5027665;28;42930;-80
2023/12/03 10:17:03;;;;;;;;;;;17.90;62.60;;;;;;5028508;28;42917;-80
2023/12/03 10:19:29;;;;;;;;;;;18.00;62.80;;;;;;5028144;28;43263;-79
2023/12/03 10:27:53;;;;;;;;;;;18.00;61.00;;;;;;4985795;28;43378;-86
2023/12/03 10:30:18;;;;;;;;;;;18.00;60.40;;;;;;4983539;28;43005;-81
2023/12/03 10:32:45;;;;;;;;;;;18.00;60.40;;;;;;4978856;28;43159;-84
2023/12/03 10:35:11;;;;;;;;;;;18.00;59.80;;;;;;4990188;28;43202;-87
2023/12/03 10:37:37;;;;;;;;;;;17.80;48.90;;;;;;4987692;28;43334;-82
2023/12/03 10:40:02;;;;;;;;;;;17.60;43.30;;;;;;4981793;28;43054;-82
2023/12/03 10:42:29;;;;;;;;;;;17.40;41.10;;;;;;4994424;28;43511;-82
2023/12/03 10:44:54;;;;;;;;;;;17.10;45.70;;;;;;4986028;28;42885;-81
2023/12/03 10:47:20;;;;;;;;;;;17.00;46.50;;;;;;4990475;28;43006;-80
2023/12/03 10:49:46;;;;;;;;;;;17.00;49.90;;;;;;4982946;28;43100;-80
2023/12/03 10:52:12;;;;;;;;;;;17.10;51.10;;;;;;4983935;28;43464;-80
2023/12/03 10:54:38;;;;;;;;;;;17.10;51.50;;;;;;4980397;28;43058;-80
2023/12/03 10:57:05;;;;;;;;;;;17.20;51.60;;;;;;4988618;28;43337;-80
2023/12/03 10:59:32;;;;;;;;;;;17.40;52.00;;;;;;4981878;28;43131;-80
2023/12/03 11:02:01;;;;;;;;;;;17.30;52.00;;;;;;4983977;28;44082;-80
2023/12/03 11:04:34;;;;;;;;;;;17.50;52.40;;;;;;4977856;28;43008;-80
2023/12/03 11:07:00;;;;;;;;;;;17.50;52.50;;;;;;5025463;28;43306;-81
2023/12/03 11:09:26;;;;;;;;;;;17.50;53.20;;;;;;5024285;28;42870;-81
2023/12/03 11:11:52;;;;;;;;;;;17.50;52.90;;;;;;5023719;28;43139;-80
2023/12/03 11:14:19;;;;;;;;;;;17.60;53.70;;;;;;5026374;28;43105;-81
2023/12/03 11:16:47;;;;;;;;;;;17.60;53.80;;;;;;5024119;28;43207;-81
2023/12/03 11:19:17;;;;;;;;;;;17.40;53.60;;;;;;5012412;28;42931;-81
2023/12/03 11:22:01;;;;;;;;;;;17.70;54.10;;;;;;5024930;28;43492;-81
2023/12/03 11:24:26;;;;;;;;;;;17.80;53.70;;;;;;5025739;28;42929;-80
2023/12/03 11:26:52;;;;;;;;;;;17.70;54.40;;;;;;5007600;28;43752;-80
2023/12/03 11:29:17;;;;;;;;;;;17.70;53.80;;;;;;5025093;28;43032;-80
2023/12/03 11:31:43;;;;;;;;;;;17.80;54.50;;;;;;5025886;28;43599;-80
2023/12/03 11:34:09;;;;;;;;;;;17.80;54.70;;;;;;5025526;28;43042;-80
2023/12/03 11:36:47;;;;;;;;;;;17.80;54.60;;;;;;5024978;28;43437;-80
2023/12/03 11:39:13;;;;;;;;;;;17.80;54.20;;;;;;5025910;28;43008;-80
2023/12/03 11:41:39;;;;;;;;;;;17.90;54.80;;;;;;5023381;28;43310;-80
2023/12/03 11:44:18;;;;;;;;;;;17.70;54.80;;;;;;5025909;28;42845;-80
2023/12/03 11:46:50;;;;;;;;;;;17.80;54.40;;;;;;5025176;28;43001;-80
2023/12/03 11:49:16;;;;;;;;;;;17.90;54.40;;;;;;5024063;28;42972;-80
2023/12/03 11:51:44;;;;;;;;;;;17.90;54.50;;;;;;5024643;28;43396;-80
2023/12/03 11:54:14;;;;;;;;;;;17.80;54.50;;;;;;5025023;28;42904;-80
2023/12/03 11:56:40;;;;;;;;;;;17.80;54.50;;;;;;5025292;28;43077;-80
2023/12/03 11:59:06;;;;;;;;;;;17.80;55.10;;;;;;5025134;28;42961;-80
2023/12/03 12:01:31;;;;;;;;;;;17.80;54.60;;;;;;5024362;28;44063;-81
2023/12/03 12:03:57;;;;;;;;;;;17.80;54.70;;;;;;5024900;28;42913;-80
2023/12/03 12:06:30;;;;;;;;;;;17.90;54.80;;;;;;5024331;28;42976;-80
2023/12/03 12:08:58;;;;;;;;;;;17.80;54.80;;;;;;5023828;28;42871;-80
2023/12/03 12:11:24;;;;;;;;;;;17.90;55.00;;;;;;5005249;28;45437;-80
2023/12/03 12:13:49;;;;;;;;;;;17.80;54.80;;;;;;5025006;28;42972;-80
2023/12/03 12:16:15;;;;;;;;;;;17.90;54.90;;;;;;5029252;28;42957;-80
2023/12/03 12:18:40;;;;;;;;;;;17.90;55.40;;;;;;5014800;28;43284;-80
2023/12/03 12:21:10;;;;;;;;;;;17.90;55.00;;;;;;5025132;28;43842;-80
2023/12/03 12:23:36;;;;;;;;;;;17.90;55.00;;;;;;5024352;28;42927;-80
2023/12/03 12:26:02;;;;;;;;;;;18.00;55.50;;;;;;5024932;28;42970;-80
2023/12/03 12:28:28;;;;;;;;;;;17.90;55.50;;;;;;5024675;28;42869;-81
2023/12/03 12:30:54;;;;;;;;;;;17.90;55.70;;;;;;5006253;28;43464;-80
2023/12/03 12:33:20;;;;;;;;;;;17.90;55.10;;;;;;5024263;28;43025;-80
2023/12/03 12:35:48;;;;;;;;;;;17.90;55.20;;;;;;5025601;28;42817;-81
2023/12/03 12:38:14;;;;;;;;;;;17.90;55.30;;;;;;5025120;28;42928;-84
2023/12/03 12:40:50;;;;;;;;;;;17.90;55.30;;;;;;5022782;28;43378;-81
2023/12/03 12:43:17;;;;;;;;;;;18.00;55.40;;;;;;5024341;28;42841;-80
2023/12/03 12:45:42;;;;;;;;;;;17.90;56.00;;;;;;5025028;28;42971;-80
2023/12/03 12:48:29;;;;;;;;;;;17.90;56.20;;;;;;5024819;28;42894;-80
2023/12/03 12:50:56;;;;;;;;;;;17.90;55.50;;;;;;5023964;28;43475;-80
2023/12/03 12:53:21;;;;;;;;;;;17.90;56.20;;;;;;5024710;28;42971;-82
2023/12/03 12:55:47;;;;;;;;;;;17.90;56.40;;;;;;5024739;28;42805;-83
2023/12/03 12:58:12;;;;;;;;;;;17.90;56.30;;;;;;5006872;28;43024;-82
2023/12/03 13:00:38;;;;;;;;;;;17.90;56.30;;;;;;5024387;28;43670;-83
2023/12/03 13:03:04;;;;;;;;;;;17.90;55.70;;;;;;5024439;28;43020;-80
2023/12/03 13:05:29;;;;;;;;;;;17.90;56.30;;;;;;5006777;28;44480;-79
2023/12/03 13:07:55;;;;;;;;;;;18.00;56.30;;;;;;5024976;28;42767;-80
2023/12/03 13:10:21;;;;;;;;;;;18.00;56.40;;;;;;5024466;28;42925;-83
2023/12/03 13:12:46;;;;;;;;;;;17.90;56.70;;;;;;5024332;28;43020;-80
2023/12/03 13:15:12;;;;;;;;;;;17.90;55.70;;;;;;5024681;28;43160;-82
2023/12/03 13:17:46;;;;;;;;;;;17.90;55.80;;;;;;5024594;28;42930;-83
2023/12/03 13:20:12;;;;;;;;;;;17.90;55.70;;;;;;5025035;28;43309;-84
2023/12/03 13:22:38;;;;;;;;;;;17.90;56.30;;;;;;5024757;28;42861;-81
2023/12/03 13:25:05;;;;;;;;;;;17.90;56.30;;;;;;5024200;28;43776;-83
2023/12/03 13:27:31;;;;;;;;;;;18.00;55.70;;;;;;5025169;28;42882;-82
2023/12/03 13:29:57;;;;;;;;;;;17.90;56.20;;;;;;5024029;28;43223;-80
2023/12/03 13:32:22;;;;;;;;;;;18.00;56.30;;;;;;5023894;28;43649;-84
2023/12/03 13:34:48;;;;;;;;;;;18.00;56.50;;;;;;5025800;28;42993;-83
2023/12/03 13:37:13;;;;;;;;;;;17.90;56.30;;;;;;5028382;28;42849;-83
2023/12/03 13:39:39;;;;;;;;;;;17.90;56.10;;;;;;5028037;28;43702;-85
2023/12/03 13:42:05;;;;;;;;;;;17.90;56.10;;;;;;5028340;28;42928;-82
2023/12/03 13:44:30;;;;;;;;;;;18.00;55.50;;;;;;5027187;28;42963;-83
2023/12/03 13:46:57;;;;;;;;;;;17.90;55.50;;;;;;5028163;28;42956;-83
2023/12/03 13:49:22;;;;;;;;;;;17.90;56.10;;;;;;5030218;28;43601;-84
2023/12/03 13:51:48;;;;;;;;;;;17.90;56.20;;;;;;5047677;28;42936;-84
2023/12/03 13:54:13;;;;;;;;;;;17.90;56.10;;;;;;5047766;28;42983;-82
2023/12/03 13:56:39;;;;;;;;;;;17.80;56.10;;;;;;5048139;28;42947;-84
2023/12/03 13:59:04;;;;;;;;;;;17.80;55.50;;;;;;5047286;28;43588;-84
2023/12/03 14:01:30;;;;;;;;;;;17.90;56.20;;;;;;5047448;28;42940;-84
2023/12/03 14:03:55;;;;;;;;;;;17.80;55.50;;;;;;5047378;28;43054;-84
2023/12/03 14:06:21;;;;;;;;;;;18.00;55.60;;;;;;5045265;28;43250;-84
2023/12/03 14:08:47;;;;;;;;;;;17.50;55.30;;;;;;5045197;28;44382;-84
2023/12/03 14:11:12;;;;;;;;;;;17.90;55.50;;;;;;5062324;28;43168;-83
2023/12/03 14:13:38;;;;;;;;;;;17.80;55.50;;;;;;5046121;28;43222;-83
2023/12/03 14:16:03;;;;;;;;;;;17.70;55.30;;;;;;5051066;28;42942;-85
2023/12/03 14:18:29;;;;;;;;;;;17.90;55.50;;;;;;5048933;28;43117;-88